• Join FlightAware (Why Join?)
  • Login
  • US Flag 
09:40PM EDT


 

Airport Tracker/Info


-or-


 

Live Flight TrackerFlight Track Log ✈ SWA1017 ✈ 24-Apr-2013 ✈ KHRL - KAUS

Flight Track Log - Related Links

Times and Time Zones

All times are in EDT time to prevent confusion due to time zone crossing. See the SWA1017 flight status page for this flight to view local times or setup timezone preferences in your user account.

Time Position Orientation Groundspeed Altitude Reporting Facility
EDT Latitude Longitude Course Direction KTS MPH feet Rate Location/Type
03:03PM 26.2375 -97.6589 North 139 160 1,000  Level Houston Center
03:04PM 26.2817 -97.6575 North 165 190 3,300 1,980 Climbing Houston Center
03:05PM 26.3114 -97.6528 North 203 234 3,900 2,220 Climbing Houston Center
03:05PM 26.3583 -97.6472 North 298 343 5,600 3,360 Climbing Houston Center
03:06PM 26.3894 -97.6436 North 278 320 7,400 3,720 Climbing Houston Center
03:07PM 26.4764 -97.6319 North 303 349 11,200 3,660 Climbing Houston Center
03:08PM 26.5783 -97.6178 North 371 427 15,000 3,600 Climbing Houston Center
03:09PM 26.6878 -97.6042 North 370 426 18,700 3,420 Climbing Houston Center
03:10PM 26.7950 -97.5892 North 385 443 22,100 2,940 Climbing Houston Center
03:11PM 26.9150 -97.5767 North 404 465 24,800 2,520 Climbing Houston Center
03:12PM 27.0272 -97.6114 345° North 427 491 27,400 2,280 Climbing Houston Center
03:13PM 27.1442 -97.6469 345° North 425 489 29,600 2,220 Climbing Houston Center
03:14PM 27.2547 -97.6853 343° North 420 483 32,000 2,220 Climbing Houston Center
03:15PM 27.3719 -97.7225 344° North 434 499 34,200 1,440 Climbing Houston Center
03:16PM 27.4850 -97.7575 345° North 428 493 35,000 360 Climbing Houston Center
03:17PM 27.6181 -97.8014 344° North 418 481 35,000  Level Houston Center
03:18PM 27.7283 -97.8358 345° North 415 478 35,000  Level Houston Center
03:19PM 27.8389 -97.8717 344° North 416 479 35,000  Level Houston Center
03:20PM 27.9483 -97.9064 344° North 413 475 35,000  Level Houston Center
03:21PM 28.0592 -97.9422 344° North 414 476 35,000  Level Houston Center
03:22PM 28.1889 -97.9833 344° North 414 476 35,000  Level Houston Center
03:23PM 28.2997 -98.0194 344° North 414 476 35,000  Level Houston Center
03:24PM 28.4097 -98.0556 344° North 412 474 35,000  Level Houston Center
03:25PM 28.5219 -98.0931 344° North 417 480 35,000 -420 Level Houston Center
03:26PM 28.6319 -98.1286 344° North 412 474 34,200 -960 Descending Houston Center
03:28PM 28.7603 -98.1714 344° North 410 472 33,100 -1,200 Descending Houston Center
03:29PM 28.8783 -98.2089 344° North 408 470 31,800 -1,620 Descending Houston Center
03:30PM 28.9858 -98.2439 344° North 403 464 29,800 -2,040 Descending Houston Center
03:31PM 29.0961 -98.2803 344° North 382 440 27,600 -2,040 Descending Houston Center
03:32PM 29.1950 -98.3133 344° North 370 426 25,600 -1,800 Descending Houston Center
03:33PM 29.2922 -98.3450 344° North 363 418 24,000 -1,200 Descending Houston Center
03:34PM 29.3967 -98.3792 344° North 364 419 23,200 -900 Descending Houston Center
03:35PM 29.4944 -98.4114 344° North 366 421 22,200 -1,080 Descending Houston Center
03:36PM 29.5933 -98.4444 344° North 364 419 21,100 -1,020 Descending Houston Center
03:37PM 29.7000 -98.4217 11° North 373 429 20,100 -960 Descending Houston Center
03:38PM 29.7875 -98.3581 32° Northeast 373 429 19,100 -1,020 Descending Houston Center
03:39PM 29.8806 -98.2906 32° Northeast 365 420 18,000 -900 Descending Houston Center
03:40PM 29.9656 -98.2297 32° Northeast 361 415 17,300 -1,260 Descending Houston Center
03:41PM 30.0494 -98.1697 32° Northeast 356 410 15,500 -1,800 Descending Houston Center
03:42PM 30.1269 -98.0911 41° Northeast 342 394 13,700 -1,620 Descending Houston Center
03:43PM 30.1286 -97.9886 89° East 318 366 12,200 -2,520 Descending Houston Center
03:44PM 30.1228 -97.8889 94° East 291 335 8,500 -3,120 Descending Houston Center
03:45PM 30.1183 -97.7961 93° East 286 329 5,700 -2,160 Descending Houston Center
03:46PM 30.0794 -97.7478 133° Southeast 246 283 4,000 -1,020 Descending Houston Center
03:47PM 30.0456 -97.7014 130° Southeast 203 234 3,600 -660 Descending Houston Center
03:48PM 30.0853 -97.6725 32° Northeast 185 213 2,700 -960 Descending Houston Center
03:49PM 30.1303 -97.6778 354° North 167 192 1,700 -660 Descending Houston Center
03:50PM 30.1731 -97.6819 355° North 159 183 1,400 -300 Descending Houston Center
03:52PM 30.1945 -97.6699 38° Northeast  Level Estimated
03:59PM 30.1945 -97.6699 221° Southwest  Level Estimated
04:00PM 30.1945 -97.6699 221° Southwest  Level Estimated